Time;durP1;ratioP1;P1;durP2;ratioP2;P2;SDS_P1;SDS_P2;PMS_P1;PMS_P2;Temp;Humidity;BMP_temperature;BMP_pressure;BME280_temperature;BME280_humidity;BME280_pressure;Samples;Min_cycle;Max_cycle;Signal;HPM_P1;HPM_P2
2023/02/14 00:01:40;;;;;;;38.40;18.33;;;;;;;0.75;100.00;101217.63;5040421;28;20041;-59
2023/02/14 00:04:05;;;;;;;36.25;17.85;;;;;;;0.74;100.00;101210.69;5046090;28;20029;-58
2023/02/14 00:06:33;;;;;;;32.90;16.00;;;;;;;0.67;100.00;101205.09;5049771;28;20040;-58
2023/02/14 00:08:59;;;;;;;36.85;16.75;;;;;;;0.60;100.00;101210.06;5039033;28;20045;-59
2023/02/14 00:11:25;;;;;;;33.78;16.98;;;;;;;0.76;100.00;101209.59;5047740;28;20095;-59
2023/02/14 00:16:34;;;;;;;34.78;15.65;;;;;;;0.70;100.00;101209.25;5038564;28;20864;-58
2023/02/14 00:19:02;;;;;;;30.90;15.70;;;;;;;0.31;100.00;101199.31;5047814;28;20028;-58
2023/02/14 00:21:28;;;;;;;33.45;15.88;;;;;;;0.42;100.00;101201.03;5044793;28;20076;-58
2023/02/14 00:23:55;;;;;;;34.50;16.08;;;;;;;0.38;100.00;101197.00;5038954;28;20515;-58
2023/02/14 00:26:20;;;;;;;36.80;16.50;;;;;;;0.83;100.00;101188.78;5038546;28;20036;-58
2023/02/14 00:28:46;;;;;;;31.98;16.10;;;;;;;0.59;100.00;101192.53;5049464;28;20148;-59
2023/02/14 00:31:11;;;;;;;36.72;17.73;;;;;;;0.43;100.00;101197.44;5045717;28;20041;-58
2023/02/14 00:33:37;;;;;;;32.05;16.02;;;;;;;0.20;100.00;101194.94;5039985;28;20075;-58
2023/02/14 00:36:03;;;;;;;31.65;14.57;;;;;;;0.13;100.00;101190.28;5036885;28;20029;-59
2023/02/14 00:38:29;;;;;;;31.45;15.90;;;;;;;-0.10;100.00;101186.88;5045657;28;20036;-59
2023/02/14 00:40:54;;;;;;;34.58;17.52;;;;;;;-0.04;100.00;101184.59;5036217;28;20047;-58
2023/02/14 00:43:20;;;;;;;37.63;18.05;;;;;;;0.05;100.00;101177.75;5051249;28;20078;-58
2023/02/14 00:45:45;;;;;;;43.03;24.77;;;;;;;0.17;100.00;101184.59;5042613;28;20025;-58
2023/02/14 00:48:10;;;;;;;55.30;30.30;;;;;;;0.15;100.00;101183.94;5040956;28;20024;-58
2023/02/14 00:50:36;;;;;;;59.28;28.10;;;;;;;0.10;100.00;101180.84;5039485;28;20380;-58
2023/02/14 00:53:01;;;;;;;45.72;23.23;;;;;;;0.15;100.00;101176.00;5037589;28;20036;-58
2023/02/14 00:55:27;;;;;;;40.78;21.02;;;;;;;0.12;100.00;101176.25;5040740;28;20033;-58
2023/02/14 00:57:52;;;;;;;36.20;17.15;;;;;;;0.18;100.00;101178.38;5040980;28;20094;-58
2023/02/14 01:00:18;;;;;;;110.30;45.38;;;;;;;0.23;100.00;101179.81;5044007;28;20033;-58
2023/02/14 01:02:43;;;;;;;62.30;29.70;;;;;;;0.20;100.00;101181.75;5049115;28;20036;-58
2023/02/14 01:05:09;;;;;;;46.15;22.77;;;;;;;0.14;100.00;101181.41;5045896;28;20036;-58
2023/02/14 01:07:34;;;;;;;38.97;19.48;;;;;;;-0.06;100.00;101178.59;5043371;28;20479;-58
2023/02/14 01:09:59;;;;;;;32.40;15.85;;;;;;;-0.35;100.00;101175.72;5039638;28;20067;-59
2023/02/14 01:12:25;;;;;;;37.60;18.58;;;;;;;-0.51;100.00;101181.38;5047187;28;20048;-59
2023/02/14 01:14:50;;;;;;;34.28;17.33;;;;;;;-0.21;100.00;101179.84;5037112;28;20496;-59
2023/02/14 01:17:16;;;;;;;46.83;19.67;;;;;;;0.32;100.00;101184.31;5042913;28;20436;-58
2023/02/14 01:19:41;;;;;;;40.55;19.77;;;;;;;0.70;100.00;101188.16;5047141;28;20028;-58
2023/02/14 01:22:07;;;;;;;35.88;18.35;;;;;;;0.29;100.00;101187.22;5038221;28;20038;-59
2023/02/14 01:24:32;;;;;;;40.30;18.90;;;;;;;-0.11;100.00;101185.22;5032215;28;20032;-59
2023/02/14 01:26:58;;;;;;;34.75;17.58;;;;;;;-0.03;100.00;101185.41;5035538;28;20037;-58
2023/02/14 01:29:23;;;;;;;44.60;19.55;;;;;;;-0.19;100.00;101195.56;5044339;28;20103;-58
2023/02/14 01:31:49;;;;;;;36.90;17.08;;;;;;;-0.36;100.00;101195.09;5040741;28;20047;-58
2023/02/14 01:34:14;;;;;;;37.47;18.17;;;;;;;-0.52;100.00;101184.13;5053708;28;20872;-58
2023/02/14 01:36:40;;;;;;;39.85;19.05;;;;;;;-0.56;100.00;101187.97;5039976;28;20032;-58
2023/02/14 01:39:11;;;;;;;31.80;17.55;;;;;;;-0.63;100.00;101186.78;5039402;28;20027;-58
2023/02/14 01:41:36;;;;;;;39.75;17.08;;;;;;;-0.62;100.00;101184.03;5036360;28;20025;-58
2023/02/14 01:44:07;;;;;;;34.95;18.30;;;;;;;-0.83;100.00;101175.19;5041194;28;20032;-58
2023/02/14 01:46:34;;;;;;;36.92;18.08;;;;;;;-0.95;100.00;101183.09;5043020;28;20031;-58
2023/02/14 01:49:04;;;;;;;36.03;16.70;;;;;;;-1.03;100.00;101174.13;5040681;28;20129;-58
2023/02/14 01:51:30;;;;;;;38.53;17.47;;;;;;;-0.97;100.00;101184.19;5044866;28;20029;-58
2023/02/14 01:53:55;;;;;;;32.83;17.42;;;;;;;-0.92;100.00;101184.66;5053175;28;20060;-58
2023/02/14 01:56:29;;;;;;;37.83;17.85;;;;;;;-0.98;100.00;101182.50;5038757;28;20021;-58
2023/02/14 01:58:55;;;;;;;40.67;18.40;;;;;;;-0.98;100.00;101183.31;5042939;28;20053;-58
2023/02/14 02:01:21;;;;;;;44.38;18.90;;;;;;;-0.48;100.00;101169.75;5027132;28;20075;-58
2023/02/14 02:03:57;;;;;;;41.00;18.63;;;;;;;-0.72;100.00;101173.38;5043178;28;20038;-58
2023/02/14 02:06:27;;;;;;;51.40;19.50;;;;;;;-0.29;100.00;101175.22;5042499;28;20031;-58
2023/02/14 02:09:23;;;;;;;38.67;19.15;;;;;;;-0.43;100.00;101167.56;5036766;28;20045;-58
2023/02/14 02:11:48;;;;;;;41.15;18.63;;;;;;;-0.53;100.00;101161.38;5041943;28;20091;-59
2023/02/14 02:14:19;;;;;;;45.17;19.65;;;;;;;-0.54;100.00;101164.97;5040187;28;20026;-58
2023/02/14 02:16:53;;;;;;;45.00;20.27;;;;;;;-0.45;100.00;101169.50;5047385;28;20443;-58
2023/02/14 02:19:49;;;;;;;47.65;19.52;;;;;;;-0.24;100.00;101157.22;5045967;28;20491;-58
2023/02/14 02:22:45;;;;;;;48.30;20.42;;;;;;;-0.51;100.00;101159.47;5047267;28;20361;-59
2023/02/14 02:25:26;;;;;;;42.88;18.98;;;;;;;-0.63;100.00;101155.19;5041443;28;20041;-58
2023/02/14 02:28:16;;;;;;;36.72;18.13;;;;;;;-0.53;100.00;101159.56;5041917;28;20123;-59
2023/02/14 02:30:47;;;;;;;43.78;18.90;;;;;;;-0.16;100.00;101158.41;5035617;28;20051;-58
2023/02/14 02:33:37;;;;;;;43.10;20.67;;;;;;;-0.29;100.00;101155.94;5047045;28;20691;-58
2023/02/14 02:36:11;;;;;;;50.28;19.45;;;;;;;-0.50;100.00;101146.19;5043803;28;20112;-58
2023/02/14 02:38:59;;;;;;;44.17;19.73;;;;;;;-0.76;100.00;101145.63;5041784;28;20362;-59
2023/02/14 02:41:34;;;;;;;38.83;17.83;;;;;;;-0.95;100.00;101148.03;5049398;28;20040;-59
2023/02/14 02:44:28;;;;;;;43.90;20.02;;;;;;;-0.97;100.00;101149.97;5046275;28;20037;-58
2023/02/14 02:47:00;;;;;;;41.60;18.63;;;;;;;-1.22;100.00;101143.97;5048315;28;20045;-58
2023/02/14 02:53:02;;;;;;;45.03;19.15;;;;;;;-0.79;100.00;101156.41;5050437;28;20036;-58
2023/02/14 02:58:34;;;;;;;38.00;17.63;;;;;;;-1.31;100.00;101155.22;5047244;28;20325;-59
2023/02/14 03:01:00;;;;;;;47.15;20.27;;;;;;;-1.25;100.00;101148.63;5075070;28;20033;-58
2023/02/14 03:06:09;;;;;;;42.25;19.70;;;;;;;-1.48;100.00;101153.03;5072734;28;20036;-58
2023/02/14 03:08:34;;;;;;;44.05;20.58;;;;;;;-1.29;100.00;101158.56;5052823;28;20029;-58
2023/02/14 03:11:00;;;;;;;45.63;19.98;;;;;;;-1.20;100.00;101155.22;5056454;28;20041;-58
2023/02/14 03:13:45;;;;;;;41.65;19.83;;;;;;;-1.20;100.00;101157.00;5049889;28;20403;-58
2023/02/14 03:16:19;;;;;;;43.88;20.27;;;;;;;-1.22;100.00;101151.88;5045899;28;20041;-58
2023/02/14 03:19:00;;;;;;;49.30;21.13;;;;;;;-1.24;100.00;101158.22;5042756;28;20055;-58
2023/02/14 03:21:45;;;;;;;37.67;18.35;;;;;;;-1.34;100.00;101158.09;5070491;28;20158;-59
2023/02/14 03:24:39;;;;;;;42.20;19.15;;;;;;;-1.16;100.00;101154.03;5074175;28;20040;-59
2023/02/14 03:27:14;;;;;;;44.70;19.73;;;;;;;-1.30;100.00;101148.97;5028445;28;20175;-58
2023/02/14 03:29:52;;;;;;;39.75;18.95;;;;;;;-1.56;100.00;101145.75;5035562;28;20029;-58
2023/02/14 03:32:25;;;;;;;38.85;18.13;;;;;;;-1.59;100.00;101161.75;5053841;28;20718;-58
2023/02/14 03:35:14;;;;;;;40.53;18.30;;;;;;;-1.68;100.00;101152.75;5052535;28;20082;-58
2023/02/14 03:38:06;;;;;;;41.50;18.92;;;;;;;-1.59;100.00;101151.25;5038992;28;20074;-58
2023/02/14 03:40:36;;;;;;;44.20;19.85;;;;;;;-1.43;100.00;101161.41;5048851;28;20514;-58
2023/02/14 03:43:05;;;;;;;46.35;20.02;;;;;;;-1.21;100.00;101150.91;5040653;28;20021;-58
2023/02/14 03:45:52;;;;;;;48.65;21.25;;;;;;;-1.31;100.00;101160.47;5030241;28;20036;-60
2023/02/14 03:48:18;;;;;;;57.63;24.17;;;;;;;-1.45;100.00;101150.16;5029657;28;20086;-60
2023/02/14 03:50:45;;;;;;;54.50;21.90;;;;;;;-1.42;100.00;101160.44;5030564;28;20025;-60
2023/02/14 03:53:10;;;;;;;56.17;23.42;;;;;;;-1.35;100.00;101153.75;5041908;28;20041;-60
2023/02/14 03:55:49;;;;;;;57.63;23.08;;;;;;;-1.28;100.00;101154.13;5035463;28;20107;-60
2023/02/14 03:58:27;;;;;;;64.72;26.13;;;;;;;-1.39;100.00;101158.44;5058304;28;20082;-59
2023/02/14 04:00:56;;;;;;;64.95;24.23;;;;;;;-0.95;100.00;101155.91;5043159;28;20037;-60
2023/02/14 04:03:22;;;;;;;62.40;27.10;;;;;;;-0.92;100.00;101160.97;5048158;28;20491;-59
2023/02/14 04:05:51;;;;;;;64.45;26.23;;;;;;;-1.06;100.00;101153.31;5045792;28;20017;-60
2023/02/14 04:08:27;;;;;;;64.07;26.25;;;;;;;-1.30;100.00;101154.25;5072991;28;20087;-60
2023/02/14 04:10:53;;;;;;;65.22;25.42;;;;;;;-1.41;100.00;101149.81;5046152;28;20047;-60
2023/02/14 04:13:19;;;;;;;57.03;22.67;;;;;;;-1.17;100.00;101147.09;5059237;28;20044;-60
2023/02/14 04:15:44;;;;;;;67.10;25.45;;;;;;;-1.21;100.00;101164.06;5042188;28;20017;-60
2023/02/14 04:20:58;;;;;;;79.60;27.33;;;;;;;-1.11;100.00;101154.50;5023106;28;20140;-60
2023/02/14 04:23:25;;;;;;;68.88;24.70;;;;;;;-0.78;100.00;101146.69;5044763;28;20115;-59
2023/02/14 04:25:51;;;;;;;90.28;29.27;;;;;;;-0.97;100.00;101147.34;5044700;28;20036;-60
2023/02/14 04:28:16;;;;;;;90.28;29.35;;;;;;;-1.03;100.00;101146.00;5044265;28;20555;-60
2023/02/14 04:30:42;;;;;;;78.45;27.50;;;;;;;-1.25;100.00;101148.63;5042724;28;20021;-60
2023/02/14 04:33:07;;;;;;;66.63;28.33;;;;;;;-1.60;100.00;101149.53;5040012;28;20029;-60
2023/02/14 04:35:33;;;;;;;67.32;26.55;;;;;;;-1.96;100.00;101154.81;5044735;28;20475;-60
2023/02/14 04:38:00;;;;;;;64.80;24.65;;;;;;;-2.00;100.00;101157.78;5042040;28;20036;-60
2023/02/14 04:40:27;;;;;;;61.10;25.30;;;;;;;-2.04;100.00;101144.06;5046728;28;20068;-60
2023/02/14 04:42:52;;;;;;;54.67;24.63;;;;;;;-2.07;100.00;101151.31;5050323;28;20037;-61
2023/02/14 04:45:18;;;;;;;53.72;23.25;;;;;;;-2.10;100.00;101144.50;5045046;28;20047;-60
2023/02/14 04:47:43;;;;;;;60.67;24.10;;;;;;;-1.82;100.00;101151.19;5031654;28;20056;-60
2023/02/14 04:50:09;;;;;;;53.72;23.00;;;;;;;-1.75;100.00;101149.78;5047894;28;20067;-60
2023/02/14 04:52:34;;;;;;;62.10;24.63;;;;;;;-1.77;100.00;101142.97;5044290;28;20024;-60
2023/02/14 04:54:59;;;;;;;74.20;27.33;;;;;;;-1.46;100.00;101136.19;5046232;28;20065;-60
2023/02/14 04:57:25;;;;;;;65.47;27.70;;;;;;;-1.47;100.00;101134.53;5045116;28;20040;-60
2023/02/14 04:59:50;;;;;;;63.60;25.75;;;;;;;-1.76;100.00;101128.84;5041092;28;20035;-60
2023/02/14 05:02:16;;;;;;;61.67;26.55;;;;;;;-1.94;100.00;101130.25;5041806;28;20056;-60
2023/02/14 05:04:41;;;;;;;62.97;25.83;;;;;;;-2.22;100.00;101130.50;5067707;28;20462;-60
2023/02/14 05:07:07;;;;;;;59.67;25.38;;;;;;;-2.26;100.00;101125.59;5044629;28;20391;-60
2023/02/14 05:09:32;;;;;;;60.63;24.52;;;;;;;-2.20;100.00;101131.22;5037929;28;20036;-60
2023/02/14 05:11:57;;;;;;;52.47;23.67;;;;;;;-2.32;100.00;101126.00;5041673;28;20044;-60
2023/02/14 05:14:23;;;;;;;54.90;23.98;;;;;;;-2.39;100.00;101126.47;5047240;28;20032;-60
2023/02/14 05:16:48;;;;;;;55.80;23.00;;;;;;;-2.20;100.00;101130.38;5044399;28;20025;-60
2023/02/14 05:19:14;;;;;;;62.83;24.80;;;;;;;-1.87;100.00;101126.16;5041959;28;20359;-60
2023/02/14 05:21:39;;;;;;;62.63;25.35;;;;;;;-2.05;100.00;101123.13;5040042;28;20060;-60
2023/02/14 05:24:05;;;;;;;62.70;25.63;;;;;;;-2.21;100.00;101119.03;5045145;28;20507;-60
2023/02/14 05:26:30;;;;;;;58.60;23.65;;;;;;;-2.39;100.00;101126.47;5049660;28;20501;-60
2023/02/14 05:28:55;;;;;;;70.65;32.42;;;;;;;-2.33;100.00;101125.19;5042404;28;20029;-60
2023/02/14 05:31:21;;;;;;;60.17;24.88;;;;;;;-2.16;100.00;101126.56;5042474;28;20040;-60
2023/02/14 05:33:46;;;;;;;56.42;24.23;;;;;;;-1.96;100.00;101133.81;5045434;28;20040;-60
2023/02/14 05:36:12;;;;;;;66.88;24.98;;;;;;;-1.47;100.00;101128.41;5048298;28;20029;-58
2023/02/14 05:38:37;;;;;;;71.13;30.23;;;;;;;-1.65;100.00;101135.91;5039500;28;20036;-58
2023/02/14 05:41:03;;;;;;;61.88;25.17;;;;;;;-1.73;100.00;101137.31;5040245;28;20034;-58
2023/02/14 05:43:29;;;;;;;73.47;28.52;;;;;;;-1.63;100.00;101134.84;5046073;28;20131;-59
2023/02/14 05:45:55;;;;;;;90.72;32.92;;;;;;;-1.89;100.00;101142.06;5037648;28;20462;-58
2023/02/14 05:48:20;;;;;;;86.25;29.42;;;;;;;-1.96;100.00;101144.31;5041717;28;20402;-58
2023/02/14 05:50:45;;;;;;;82.20;32.85;;;;;;;-2.04;100.00;101141.44;5042723;28;20025;-58
2023/02/14 05:53:11;;;;;;;82.38;30.17;;;;;;;-2.10;100.00;101146.28;5051909;28;20029;-58
2023/02/14 05:55:37;;;;;;;65.38;27.88;;;;;;;-2.16;100.00;101142.34;5040043;28;20128;-59
2023/02/14 05:58:02;;;;;;;75.32;29.92;;;;;;;-2.16;100.00;101142.34;5047581;28;20476;-58
2023/02/14 06:00:28;;;;;;;79.15;30.90;;;;;;;-2.26;100.00;101143.97;5043767;28;20048;-60
2023/02/14 06:02:53;;;;;;;78.50;28.50;;;;;;;-2.07;100.00;101136.41;5033599;28;20033;-60
2023/02/14 06:05:19;;;;;;;86.18;29.17;;;;;;;-2.13;100.00;101136.00;5045235;28;20044;-60
2023/02/14 06:07:49;;;;;;;84.03;30.65;;;;;;;-2.21;100.00;101144.47;5041913;28;20025;-60
2023/02/14 06:10:19;;;;;;;73.45;27.92;;;;;;;-2.17;100.00;101135.41;5041015;28;20046;-60
2023/02/14 06:12:47;;;;;;;81.50;31.95;;;;;;;-2.32;100.00;101133.91;5045693;28;20048;-60
2023/02/14 06:15:12;;;;;;;78.15;31.00;;;;;;;-2.39;100.00;101136.97;5048870;28;20109;-60
2023/02/14 06:17:37;;;;;;;73.03;30.45;;;;;;;-2.57;100.00;101138.34;5039365;28;20025;-60
2023/02/14 06:20:03;;;;;;;67.47;28.15;;;;;;;-2.77;100.00;101146.78;5039927;28;20246;-60
2023/02/14 06:22:29;;;;;;;73.82;30.65;;;;;;;-2.86;100.00;101149.13;5053312;28;20041;-60
2023/02/14 06:24:54;;;;;;;69.03;28.90;;;;;;;-2.83;100.00;101154.13;5038320;28;20037;-60
2023/02/14 06:27:19;;;;;;;72.88;30.52;;;;;;;-2.84;100.00;101151.66;5047750;28;20086;-59
2023/02/14 06:29:45;;;;;;;66.32;27.42;;;;;;;-2.97;100.00;101149.06;5046696;28;20029;-60
2023/02/14 06:32:10;;;;;;;74.30;27.90;;;;;;;-2.83;100.00;101151.50;5038994;28;20030;-59
2023/02/14 06:34:36;;;;;;;79.18;29.73;;;;;;;-2.82;100.00;101150.59;5032849;28;20056;-60
2023/02/14 06:37:01;;;;;;;82.22;30.90;;;;;;;-2.82;100.00;101155.84;5049110;28;20029;-59
2023/02/14 06:39:26;;;;;;;79.30;31.38;;;;;;;-2.56;100.00;101144.41;5041832;28;20101;-59
2023/02/14 06:41:52;;;;;;;97.97;35.22;;;;;;;-2.10;100.00;101149.75;5037263;28;20095;-59
2023/02/14 06:44:17;;;;;;;82.15;31.13;;;;;;;-2.49;100.00;101151.75;5039096;28;20022;-60
2023/02/14 06:46:43;;;;;;;90.05;33.72;;;;;;;-2.42;100.00;101152.97;5044072;28;20439;-60
2023/02/14 06:49:09;;;;;;;100.57;36.10;;;;;;;-1.72;100.00;101153.97;5053026;28;20024;-58
2023/02/14 06:51:34;;;;;;;106.03;35.60;;;;;;;-1.83;100.00;101148.66;5043265;28;20097;-60
2023/02/14 06:54:00;;;;;;;103.95;36.95;;;;;;;-1.82;100.00;101150.31;5045829;28;20450;-60
2023/02/14 06:56:25;;;;;;;94.63;35.30;;;;;;;-2.02;100.00;101146.56;5044052;28;20036;-59
2023/02/14 06:58:50;;;;;;;98.85;35.40;;;;;;;-2.04;100.00;101156.38;5044936;28;20032;-60
2023/02/14 07:01:16;;;;;;;102.85;36.35;;;;;;;-2.15;100.00;101151.06;5043988;28;20041;-60
2023/02/14 07:03:41;;;;;;;97.15;35.97;;;;;;;-2.17;100.00;101153.81;5037535;28;20041;-59
2023/02/14 07:06:07;;;;;;;91.68;33.13;;;;;;;-2.12;100.00;101153.44;5041039;28;20534;-60
2023/02/14 07:08:32;;;;;;;95.47;35.03;;;;;;;-1.92;100.00;101154.59;5039810;28;20029;-60
2023/02/14 07:10:58;;;;;;;75.97;31.92;;;;;;;-1.41;100.00;101154.25;5041606;28;20589;-60
2023/02/14 07:13:23;;;;;;;114.45;40.30;;;;;;;-1.57;100.00;101155.44;5040333;28;20091;-60
2023/02/14 07:15:49;;;;;;;95.85;37.10;;;;;;;-1.65;100.00;101157.78;5042973;28;20028;-60
2023/02/14 07:18:14;;;;;;;105.13;38.03;;;;;;;-1.66;100.00;101152.66;5041945;28;20021;-60
2023/02/14 07:20:39;;;;;;;103.78;39.47;;;;;;;-1.67;100.00;101158.84;5042078;28;20041;-60
2023/02/14 07:23:05;;;;;;;96.28;34.95;;;;;;;-1.66;100.00;101153.47;5042555;28;20537;-60
2023/02/14 07:25:30;;;;;;;99.85;37.45;;;;;;;-1.76;100.00;101152.50;5044045;28;20029;-60
2023/02/14 07:27:56;;;;;;;91.03;34.30;;;;;;;-1.72;100.00;101153.97;5036194;28;20537;-60
2023/02/14 07:30:21;;;;;;;93.90;35.63;;;;;;;-1.80;100.00;101151.06;5049832;28;20028;-60
2023/02/14 07:32:47;;;;;;;77.57;33.58;;;;;;;-1.94;100.00;101141.59;5043786;28;20048;-60
2023/02/14 07:35:12;;;;;;;130.73;33.15;;;;;;;-1.46;100.00;101151.13;5044647;28;20067;-60
2023/02/14 07:37:37;;;;;;;87.50;35.33;;;;;;;-1.65;100.00;101142.00;5036021;28;20044;-60
2023/02/14 07:40:03;;;;;;;97.07;34.70;;;;;;;-1.35;100.00;101149.38;5042512;28;20035;-60
2023/02/14 07:42:29;;;;;;;84.68;31.45;;;;;;;-0.81;100.00;101146.94;5043118;28;20268;-61
2023/02/14 07:44:54;;;;;;;86.60;30.92;;;;;;;-0.38;100.00;101149.59;5045011;28;20472;-60
2023/02/14 07:47:20;;;;;;;66.38;22.50;;;;;;;-0.52;100.00;101145.47;5043405;28;20029;-60
2023/02/14 07:49:45;;;;;;;70.78;25.20;;;;;;;-0.58;100.00;101148.56;5043982;28;20025;-59
2023/02/14 07:52:11;;;;;;;65.93;23.33;;;;;;;-0.17;100.00;101154.09;5040012;28;20036;-60
2023/02/14 07:54:37;;;;;;;90.30;29.65;;;;;;;-0.33;100.00;101143.97;5031989;28;20020;-60
2023/02/14 07:57:03;;;;;;;78.75;27.48;;;;;;;-0.79;100.00;101151.13;5040183;28;20033;-60
2023/02/14 07:59:29;;;;;;;109.57;28.52;;;;;;;-0.81;100.00;101152.22;5042684;28;20415;-60
2023/02/14 08:01:54;;;;;;;81.35;26.90;;;;;;;-0.26;100.00;101148.59;5042328;28;20025;-60
2023/02/14 08:04:20;;;;;;;93.97;27.98;;;;;;;-0.16;100.00;101155.75;5044864;28;20036;-59
2023/02/14 08:06:45;;;;;;;83.47;27.27;;;;;;;-0.27;100.00;101152.22;5044882;28;20040;-58
2023/02/14 08:09:23;;;;;;;90.40;32.25;;;;;;;-0.09;100.00;101155.13;5040704;28;20026;-58
2023/02/14 08:14:34;;;;;;;88.25;27.83;;;;;;;-0.31;100.00;101142.88;5045078;28;20059;-58
2023/02/14 08:17:01;;;;;;;87.82;24.27;;;;;;;0.21;100.00;101157.03;5044711;28;20025;-61
2023/02/14 08:19:27;;;;;;;96.18;27.33;;;;;;;0.15;100.00;101160.19;5042997;28;20395;-60
2023/02/14 08:21:55;;;;;;;95.13;24.30;;;;;;;-0.49;100.00;101153.09;5043111;28;20365;-61
2023/02/14 08:24:21;;;;;;;182.48;29.63;;;;;;;-0.36;100.00;101150.31;5043904;28;21027;-59
2023/02/14 08:26:47;;;;;;;254.85;29.10;;;;;;;-0.20;100.00;101151.69;5043670;28;20028;-58
2023/02/14 08:29:12;;;;;;;203.80;26.55;;;;;;;0.12;100.00;101149.88;5041534;28;20025;-59
2023/02/14 08:31:38;;;;;;;270.02;28.90;;;;;;;-0.06;100.00;101146.97;5043806;28;20025;-59
2023/02/14 08:34:09;;;;;;;276.17;25.80;;;;;;;0.30;100.00;101151.94;5042055;28;20621;-59
2023/02/14 08:36:34;;;;;;;240.55;27.27;;;;;;;0.32;100.00;101142.94;5048332;28;20047;-59
2023/02/14 08:39:00;;;;;;;247.40;25.25;;;;;;;-0.26;100.00;101148.59;5044617;28;20479;-59
2023/02/14 08:41:27;;;;;;;287.58;26.80;;;;;;;-0.10;100.00;101147.34;5031304;28;20045;-59
2023/02/14 08:43:53;;;;;;;273.95;29.60;;;;;;;0.38;100.00;101145.06;5031883;28;20033;-60
2023/02/14 08:46:19;;;;;;;320.63;27.25;;;;;;;0.41;100.00;101142.16;5042129;28;20043;-60
2023/02/14 08:48:44;;;;;;;283.42;27.42;;;;;;;0.43;100.00;101139.41;5037396;28;20479;-60
2023/02/14 08:51:12;;;;;;;249.48;32.85;;;;;;;1.18;100.00;101145.31;5047028;28;20573;-60
2023/02/14 08:53:39;;;;;;;239.13;30.52;;;;;;;1.01;100.00;101144.13;5047309;28;20575;-60
2023/02/14 08:56:06;;;;;;;202.57;29.10;;;;;;;1.08;100.00;101155.81;5045426;28;20074;-60
2023/02/14 08:58:31;;;;;;;112.20;31.48;;;;;;;1.24;100.00;101152.66;5042785;28;20037;-59
2023/02/14 09:00:57;;;;;;;133.25;33.58;;;;;;;1.63;100.00;101155.41;5041773;28;20029;-60
2023/02/14 09:03:23;;;;;;;130.18;33.83;;;;;;;1.69;100.00;101153.03;5040197;28;20038;-58
2023/02/14 09:05:48;;;;;;;116.22;37.10;;;;;;;1.34;100.00;101161.47;5043466;28;20497;-60
2023/02/14 09:08:14;;;;;;;105.85;31.63;;;;;;;1.50;100.00;101160.97;5049652;28;20052;-59
2023/02/14 09:10:42;;;;;;;137.70;34.25;;;;;;;1.25;100.00;101167.56;5041405;28;20034;-59
2023/02/14 09:13:08;;;;;;;117.28;33.83;;;;;;;1.56;100.00;101167.50;5025598;28;20060;-61
2023/02/14 09:15:34;;;;;;;117.28;33.53;;;;;;;1.47;100.00;101164.72;5042964;28;20040;-60
2023/02/14 09:18:00;;;;;;;150.00;39.95;;;;;;;1.85;100.00;101165.72;5042644;28;20028;-60
2023/02/14 09:20:25;;;;;;;151.45;43.17;;;;;;;1.94;100.00;101166.69;5046792;28;20033;-61
2023/02/14 09:22:53;;;;;;;154.93;43.15;;;;;;;1.99;100.00;101161.00;5032683;28;20052;-60
2023/02/14 09:25:18;;;;;;;135.88;38.25;;;;;;;2.35;100.00;101168.22;5046882;28;20045;-59
2023/02/14 09:27:44;;;;;;;148.77;40.13;;;;;;;2.50;100.00;101165.13;5037595;28;20036;-60
2023/02/14 09:30:10;;;;;;;140.60;37.58;;;;;;;3.06;100.00;101164.25;5044384;28;20029;-60
2023/02/14 09:32:35;;;;;;;158.27;37.17;;;;;;;3.34;100.00;101161.59;5040056;28;20029;-59
2023/02/14 09:35:01;;;;;;;133.73;34.55;;;;;;;3.20;100.00;101155.81;5039719;28;20029;-60
2023/02/14 09:37:26;;;;;;;145.95;34.15;;;;;;;2.96;100.00;101156.31;5036901;28;20032;-60
2023/02/14 09:39:52;;;;;;;131.10;33.63;;;;;;;2.53;100.00;101159.53;5042089;28;20421;-60
2023/02/14 09:42:38;;;;;;;134.23;34.38;;;;;;;2.40;100.00;101159.00;5038127;28;20032;-59
2023/02/14 09:45:19;;;;;;;156.57;35.90;;;;;;;2.55;100.00;101154.94;5039459;28;20374;-60
2023/02/14 09:48:09;;;;;;;163.27;38.50;;;;;;;2.72;100.00;101159.50;5038713;28;20087;-59
2023/02/14 09:51:01;;;;;;;204.15;37.70;;;;;;;2.16;100.00;101174.34;5036308;28;20127;-59
2023/02/14 09:53:32;;;;;;;140.65;36.72;;;;;;;2.29;100.00;101163.47;5044628;28;20025;-60
2023/02/14 09:56:03;;;;;;;;;;;;;;;2.81;100.00;101169.19;5040195;28;20028;-60
2023/02/14 09:58:43;;;;;;;147.57;35.25;;;;;;;2.84;100.00;101162.78;5041082;28;19920;-60
2023/02/14 10:01:11;;;;;;;;;;;;;;;2.87;100.00;101157.22;5043257;28;20037;-59
2023/02/14 10:03:42;;;;;;;133.40;35.10;;;;;;;2.89;100.00;101165.00;5035903;28;20015;-60
2023/02/14 10:06:34;;;;;;;143.20;35.42;;;;;;;3.22;100.00;101151.19;5072700;28;20029;-60
2023/02/14 10:09:19;;;;;;;114.57;34.15;;;;;;;3.96;100.00;101154.59;5030611;28;20400;-60
2023/02/14 10:11:45;;;;;;;116.63;32.10;;;;;;;4.15;99.78;101156.28;5041263;28;20033;-60
2023/02/14 10:14:18;;;;;;;86.20;28.67;;;;;;;3.85;100.00;101147.72;5051280;28;20041;-60
2023/02/14 10:17:06;;;;;;;83.60;28.00;;;;;;;4.08;100.00;101144.59;5034231;28;20025;-60
2023/02/14 10:19:31;;;;;;;88.63;31.13;;;;;;;4.42;98.57;101142.03;5012375;28;20480;-58
2023/02/14 10:22:15;;;;;;;88.28;29.92;;;;;;;4.25;98.08;101145.56;5038719;28;20048;-61
2023/02/14 10:24:47;;;;;;;114.75;35.65;;;;;;;4.61;97.98;101145.47;5032986;28;20167;-58
2023/02/14 10:27:36;;;;;;;115.47;34.40;;;;;;;4.72;95.15;101140.75;5034224;28;20061;-60
2023/02/14 10:30:02;;;;;;;104.10;35.92;;;;;;;5.00;95.81;101142.38;5036471;28;20453;-60
2023/02/14 10:32:38;;;;;;;98.22;31.63;;;;;;;5.32;92.63;101131.88;5048794;28;20028;-60
2023/02/14 10:35:25;;;;;;;73.07;28.48;;;;;;;5.77;89.53;101125.31;5025239;28;20480;-60
2023/02/14 10:38:22;;;;;;;82.82;31.65;;;;;;;6.13;89.02;101130.34;5034796;28;20052;-60
2023/02/14 10:41:01;;;;;;;66.97;27.48;;;;;;;6.53;87.28;101128.63;5038338;28;20029;-60
2023/02/14 10:43:43;;;;;;;80.53;29.42;;;;;;;6.75;85.64;101118.25;5037556;28;20033;-60
2023/02/14 10:46:21;;;;;;;75.30;28.55;;;;;;;6.01;87.66;101118.34;5031489;28;20040;-59
2023/02/14 10:49:07;;;;;;;66.95;26.55;;;;;;;6.53;87.61;101112.66;5037679;28;20434;-59
2023/02/14 10:51:44;;;;;;;78.30;27.75;;;;;;;7.94;84.13;101115.28;5040122;28;20028;-59
2023/02/14 10:54:34;;;;;;;85.80;30.08;;;;;;;8.29;78.66;101118.31;5036838;28;20034;-58
2023/02/14 10:57:09;;;;;;;91.18;29.75;;;;;;;7.68;82.11;101117.47;5043250;28;20025;-59
2023/02/14 11:00:00;;;;;;;91.95;29.58;;;;;;;7.76;82.00;101112.06;5037969;28;20045;-61
2023/02/14 11:02:34;;;;;;;83.97;30.98;;;;;;;7.60;80.14;101112.19;5041274;28;20093;-59
2023/02/14 11:05:00;;;;;;;84.15;28.38;;;;;;;7.94;78.93;101117.13;5042564;28;20141;-59
2023/02/14 11:07:25;;;;;;;82.28;30.25;;;;;;;7.16;84.48;101118.91;5044659;28;20498;-59
2023/02/14 11:09:51;;;;;;;72.57;28.95;;;;;;;7.97;80.03;101114.91;5039814;28;20044;-60
2023/02/14 11:12:38;;;;;;;87.63;29.77;;;;;;;7.33;82.49;101109.00;5040372;28;20426;-59
2023/02/14 11:15:27;;;;;;;76.05;29.80;;;;;;;7.77;81.49;101098.56;5044261;28;20443;-59
2023/02/14 11:18:30;;;;;;;77.13;28.13;;;;;;;8.49;78.03;101096.47;5037052;28;20021;-59
2023/02/14 11:21:03;;;;;;;74.30;28.63;;;;;;;7.46;81.56;101087.09;5041566;28;20530;-59
2023/02/14 11:23:48;;;;;;;88.20;29.40;;;;;;;7.09;85.55;101086.81;5037111;28;20033;-60
2023/02/14 11:26:23;;;;;;;73.75;28.00;;;;;;;7.13;85.02;101082.78;5041927;28;20033;-59
2023/02/14 11:28:55;;;;;;;68.68;30.02;;;;;;;7.27;83.94;101080.38;5043155;28;20032;-60
2023/02/14 11:31:35;;;;;;;68.00;27.98;;;;;;;7.25;84.01;101074.38;5039024;28;20375;-60
2023/02/14 11:34:02;;;;;;;67.15;27.70;;;;;;;7.12;85.48;101067.78;5032838;28;20038;-60